createdAt,value
2023-01-13T00:01:08.864Z,97209.63
2023-01-13T00:03:35.806Z,97201.00
2023-01-13T00:06:02.505Z,97203.91
2023-01-13T00:08:29.139Z,97199.78
2023-01-13T00:10:56.925Z,97196.25
2023-01-13T00:13:23.582Z,97209.88
2023-01-13T00:16:00.015Z,97202.22
2023-01-13T00:18:26.895Z,97192.34
2023-01-13T00:21:03.105Z,97190.50
2023-01-13T00:23:30.508Z,97186.34
2023-01-13T00:26:01.454Z,97189.78
2023-01-13T00:28:28.249Z,97189.44
2023-01-13T00:30:55.042Z,97186.53
2023-01-13T00:33:21.679Z,97189.06
2023-01-13T00:35:58.172Z,97182.25
2023-01-13T00:38:24.813Z,97173.00
2023-01-13T00:41:09.037Z,97167.81
2023-01-13T00:43:36.247Z,97159.97
2023-01-13T00:46:03.968Z,97157.28
2023-01-13T00:48:30.826Z,97157.94
2023-01-13T00:51:04.781Z,97160.09
2023-01-13T00:53:36.599Z,97149.63
2023-01-13T00:56:03.942Z,97143.47
2023-01-13T00:58:34.187Z,97144.06
2023-01-13T01:01:01.968Z,97147.38
2023-01-13T01:03:28.764Z,97149.84
2023-01-13T01:05:56.083Z,97151.72
2023-01-13T01:08:22.718Z,97148.84
2023-01-13T01:10:49.394Z,97137.31
2023-01-13T01:13:16.038Z,97143.28
2023-01-13T01:15:43.560Z,97140.03
2023-01-13T01:18:10.216Z,97140.63
2023-01-13T01:20:37.455Z,97141.06
2023-01-13T01:23:04.365Z,97145.81
2023-01-13T01:25:32.673Z,97148.06
2023-01-13T01:27:59.845Z,97145.00
2023-01-13T01:30:26.513Z,97148.53
2023-01-13T01:32:53.160Z,97143.59
2023-01-13T01:35:19.813Z,97144.81
2023-01-13T01:37:46.466Z,97151.41
2023-01-13T01:40:13.263Z,97156.78
2023-01-13T01:42:40.222Z,97153.09
2023-01-13T01:45:20.807Z,97149.00
2023-01-13T01:47:48.547Z,97156.00
2023-01-13T01:50:15.423Z,97149.84
2023-01-13T01:52:43.240Z,97153.13
2023-01-13T01:55:18.220Z,97156.22
2023-01-13T01:58:08.851Z,97148.19
2023-01-13T02:00:35.506Z,97142.41
2023-01-13T02:03:02.162Z,97139.75
2023-01-13T02:05:28.808Z,97136.66
2023-01-13T02:07:56.947Z,97132.91
2023-01-13T02:10:25.142Z,97126.13
2023-01-13T02:12:51.783Z,97121.59
2023-01-13T02:15:25.080Z,97108.59
2023-01-13T02:18:13.536Z,97116.22
2023-01-13T02:20:59.702Z,97109.41
2023-01-13T02:23:44.457Z,97120.72
2023-01-13T02:26:50.698Z,97107.72
2023-01-13T02:29:32.786Z,97098.25
2023-01-13T02:32:04.088Z,97096.97
2023-01-13T02:34:39.141Z,97085.88
2023-01-13T02:37:27.478Z,97082.13
2023-01-13T02:40:02.612Z,97087.91
2023-01-13T02:42:34.536Z,97085.03
2023-01-13T02:45:11.726Z,97080.84
2023-01-13T02:47:38.761Z,97087.88
2023-01-13T02:50:10.531Z,97089.16
2023-01-13T02:52:44.693Z,97073.50
2023-01-13T02:55:20.026Z,97076.38
2023-01-13T02:57:46.673Z,97073.72
2023-01-13T03:00:13.627Z,97070.66
2023-01-13T03:02:40.297Z,97076.22
2023-01-13T03:05:07.226Z,97080.13
2023-01-13T03:07:59.098Z,97072.72
2023-01-13T03:10:31.843Z,97072.13
2023-01-13T03:13:19.970Z,97067.75
2023-01-13T03:16:05.394Z,97066.13
2023-01-13T03:18:53.240Z,97076.03
2023-01-13T03:21:20.989Z,97080.16
2023-01-13T03:23:55.648Z,97081.16
2023-01-13T03:26:28.331Z,97080.16
2023-01-13T03:29:19.806Z,97069.44
2023-01-13T03:32:11.875Z,97071.91
2023-01-13T03:34:48.437Z,97080.56
2023-01-13T03:37:15.094Z,97075.81
2023-01-13T03:39:44.033Z,97075.38
2023-01-13T03:42:13.294Z,97081.13
2023-01-13T03:44:53.872Z,97081.59
2023-01-13T03:47:58.893Z,97089.84
2023-01-13T03:50:49.592Z,97084.69
2023-01-13T03:53:23.620Z,97089.84
2023-01-13T03:55:59.723Z,97097.50
2023-01-13T03:58:29.204Z,97087.19
2023-01-13T04:01:01.722Z,97091.72
2023-01-13T04:03:46.723Z,97101.19
2023-01-13T04:06:19.734Z,97110.25
2023-01-13T04:08:52.557Z,97109.66
2023-01-13T04:11:23.497Z,97113.97
2023-01-13T04:13:50.155Z,97122.13
2023-01-13T04:16:16.744Z,97130.38
2023-01-13T04:18:43.377Z,97120.69
2023-01-13T04:21:10.021Z,97113.09
2023-01-13T04:23:36.700Z,97121.56
2023-01-13T04:26:03.381Z,97121.72
2023-01-13T04:28:30.030Z,97124.84
2023-01-13T04:30:56.742Z,97130.00
2023-01-13T04:33:23.412Z,97130.00
2023-01-13T04:35:50.046Z,97125.84
2023-01-13T04:38:17.902Z,97127.09
2023-01-13T04:40:44.686Z,97132.50
2023-01-13T04:43:11.494Z,97121.47
2023-01-13T04:45:38.163Z,97123.91
2023-01-13T04:48:04.978Z,97121.47
2023-01-13T04:50:31.653Z,97123.47
2023-01-13T04:52:58.278Z,97130.44
2023-01-13T04:55:25.021Z,97135.16
2023-01-13T04:57:51.773Z,97134.97
2023-01-13T05:00:20.021Z,97130.47
2023-01-13T05:02:46.640Z,97137.13
2023-01-13T05:05:13.482Z,97134.63
2023-01-13T05:07:40.087Z,97136.22
2023-01-13T05:10:06.897Z,97146.53
2023-01-13T05:12:33.560Z,97143.31
2023-01-13T05:15:00.219Z,97138.38
2023-01-13T05:17:27.028Z,97146.25
2023-01-13T05:19:53.724Z,97132.03
2023-01-13T05:22:20.390Z,97143.50
2023-01-13T05:24:46.985Z,97150.31
2023-01-13T05:27:13.647Z,97146.97
2023-01-13T05:29:40.290Z,97149.88
2023-01-13T05:32:06.923Z,97149.41
2023-01-13T05:34:33.562Z,97138.47
2023-01-13T05:37:00.242Z,97136.44
2023-01-13T05:39:29.895Z,97136.63
2023-01-13T05:41:56.556Z,97131.22
2023-01-13T05:44:23.214Z,97135.84
2023-01-13T05:46:49.897Z,97138.25
2023-01-13T05:49:16.634Z,97136.59
2023-01-13T05:51:43.313Z,97139.41
2023-01-13T05:54:09.959Z,97135.97
2023-01-13T05:56:36.585Z,97148.66
2023-01-13T05:59:03.244Z,97144.06
2023-01-13T06:01:29.907Z,97136.41
2023-01-13T06:03:56.593Z,97132.00
2023-01-13T06:06:23.280Z,97143.06
2023-01-13T06:08:49.882Z,97138.31
2023-01-13T06:11:16.534Z,97134.41
2023-01-13T06:13:43.187Z,97132.91
2023-01-13T06:16:09.945Z,97125.75
2023-01-13T06:18:36.577Z,97130.19
2023-01-13T06:21:03.387Z,97123.34
2023-01-13T06:23:30.048Z,97125.88
2023-01-13T06:26:18.910Z,97126.94
2023-01-13T06:28:45.608Z,97128.78
2023-01-13T06:31:12.341Z,97124.94
2023-01-13T06:33:50.353Z,97128.13
2023-01-13T06:36:19.511Z,97132.81
2023-01-13T06:38:47.280Z,97134.59
2023-01-13T06:41:13.958Z,97130.88
2023-01-13T06:43:40.642Z,97131.53
2023-01-13T06:46:07.249Z,97131.31
2023-01-13T06:48:34.166Z,97146.38
2023-01-13T06:51:04.302Z,97157.16
2023-01-13T06:53:31.181Z,97155.06
2023-01-13T06:55:57.839Z,97151.00
2023-01-13T06:58:24.436Z,97157.75
2023-01-13T07:00:51.106Z,97169.44
2023-01-13T07:03:17.861Z,97169.25
2023-01-13T07:05:52.385Z,97176.34
2023-01-13T07:08:18.983Z,97182.78
2023-01-13T07:10:45.596Z,97176.00
2023-01-13T07:13:12.235Z,97192.81
2023-01-13T07:15:38.852Z,97182.59
2023-01-13T07:18:05.496Z,97196.69
2023-01-13T07:20:32.172Z,97191.50
2023-01-13T07:22:58.859Z,97190.28
2023-01-13T07:25:27.595Z,97198.25
2023-01-13T07:27:56.075Z,97207.47
2023-01-13T07:30:22.732Z,97206.47
2023-01-13T07:32:49.372Z,97200.50
2023-01-13T07:35:16.005Z,97204.56
2023-01-13T07:37:42.679Z,97207.28
2023-01-13T07:40:09.752Z,97204.44
2023-01-13T07:42:38.333Z,97205.69
2023-01-13T07:45:05.421Z,97197.44
2023-01-13T07:47:32.092Z,97202.94
2023-01-13T07:49:58.708Z,97199.09
2023-01-13T07:52:25.350Z,97206.28
2023-01-13T07:54:52.031Z,97208.78
2023-01-13T07:57:18.864Z,97220.53
2023-01-13T07:59:45.544Z,97219.06
2023-01-13T08:02:13.139Z,97226.25
2023-01-13T08:04:40.072Z,97231.84
2023-01-13T08:07:06.732Z,97217.19
2023-01-13T08:09:33.483Z,97207.88
2023-01-13T08:12:00.076Z,97211.25
2023-01-13T08:14:26.713Z,97223.34
2023-01-13T08:16:53.352Z,97227.22
2023-01-13T08:19:19.940Z,97222.94
2023-01-13T08:21:46.606Z,97218.00
2023-01-13T08:24:13.312Z,97215.16
2023-01-13T08:26:39.928Z,97223.34
2023-01-13T08:29:06.525Z,97213.50
2023-01-13T08:31:33.397Z,97224.47
2023-01-13T08:34:00.105Z,97221.34
2023-01-13T08:36:26.778Z,97240.47
2023-01-13T08:38:53.395Z,97237.13
2023-01-13T08:41:20.033Z,97242.81
2023-01-13T08:43:46.645Z,97243.91
2023-01-13T08:46:13.343Z,97247.72
2023-01-13T08:48:40.095Z,97252.31
2023-01-13T08:51:07.713Z,97250.13
2023-01-13T08:53:34.399Z,97261.31
2023-01-13T08:56:01.112Z,97278.84
2023-01-13T08:58:27.819Z,97283.34
2023-01-13T09:00:54.613Z,97284.97
2023-01-13T09:03:21.360Z,97296.28
2023-01-13T09:05:48.041Z,97297.47
2023-01-13T09:08:14.694Z,97294.97
2023-01-13T09:10:41.349Z,97288.78
2023-01-13T09:13:11.670Z,97292.63
2023-01-13T09:15:39.704Z,97310.44
2023-01-13T09:18:06.371Z,97306.91
2023-01-13T09:20:33.052Z,97306.03
2023-01-13T09:22:59.751Z,97306.91
2023-01-13T09:25:26.452Z,97301.88
2023-01-13T09:27:53.084Z,97298.03
2023-01-13T09:30:19.830Z,97307.81
2023-01-13T09:32:46.489Z,97309.78
2023-01-13T09:35:13.339Z,97295.19
2023-01-13T09:37:40.481Z,97278.03
2023-01-13T09:40:17.658Z,97295.34
2023-01-13T09:42:49.349Z,97293.44
2023-01-13T09:45:39.568Z,97297.06
2023-01-13T09:48:32.346Z,97306.72
2023-01-13T09:51:14.957Z,97308.38
2023-01-13T09:53:45.817Z,97316.47
2023-01-13T09:56:12.506Z,97311.22
2023-01-13T09:58:39.185Z,97312.44
2023-01-13T10:01:16.292Z,97309.84
2023-01-13T10:03:42.992Z,97300.47
2023-01-13T10:06:17.486Z,97299.19
2023-01-13T10:08:45.282Z,97304.69
2023-01-13T10:11:19.507Z,97305.81
2023-01-13T10:13:46.151Z,97298.38
2023-01-13T10:16:31.376Z,97306.28
2023-01-13T10:19:16.607Z,97298.09
2023-01-13T10:21:49.279Z,97301.69
2023-01-13T10:24:27.968Z,97297.59
2023-01-13T10:26:54.442Z,97303.91
2023-01-13T10:29:26.182Z,97293.91
2023-01-13T10:31:53.785Z,97283.22
2023-01-13T10:34:20.579Z,97288.97
2023-01-13T10:37:03.894Z,97284.66
2023-01-13T10:39:39.494Z,97291.84
2023-01-13T10:42:06.970Z,97283.50
2023-01-13T10:44:46.223Z,97292.59
2023-01-13T10:47:19.943Z,97280.50
2023-01-13T10:49:46.606Z,97289.56
2023-01-13T10:52:30.186Z,97286.66
2023-01-13T10:54:57.892Z,97272.78
2023-01-13T10:57:25.826Z,97263.84
2023-01-13T10:59:52.563Z,97254.00
2023-01-13T11:02:25.805Z,97256.69
2023-01-13T11:04:52.908Z,97253.19
2023-01-13T11:07:28.208Z,97248.97
2023-01-13T11:10:21.378Z,97248.06
2023-01-13T11:13:03.068Z,97243.94
2023-01-13T11:15:38.494Z,97254.03
2023-01-13T11:18:09.700Z,97256.09
2023-01-13T11:20:37.187Z,97254.06
2023-01-13T11:23:15.686Z,97241.25
2023-01-13T11:25:44.617Z,97258.56
2023-01-13T11:28:19.282Z,97246.59
2023-01-13T11:31:04.444Z,97249.50
2023-01-13T11:33:35.240Z,97247.47
2023-01-13T11:36:30.549Z,97241.47
2023-01-13T11:39:11.563Z,97242.28
2023-01-13T11:41:47.423Z,97242.47
2023-01-13T11:44:27.563Z,97247.66
2023-01-13T11:46:54.259Z,97248.47
2023-01-13T11:49:27.018Z,97250.75
2023-01-13T11:52:21.389Z,97259.22
2023-01-13T11:55:02.019Z,97256.50
2023-01-13T11:58:00.741Z,97249.25
2023-01-13T12:00:32.400Z,97244.91
2023-01-13T12:03:25.209Z,97258.78
2023-01-13T12:06:17.664Z,97258.34
2023-01-13T12:09:12.004Z,97265.19
2023-01-13T12:11:59.894Z,97271.81
2023-01-13T12:14:39.637Z,97275.91
2023-01-13T12:17:08.484Z,97265.00
2023-01-13T12:19:35.700Z,97262.94
2023-01-13T12:22:24.258Z,97264.97
2023-01-13T12:24:54.398Z,97265.81
2023-01-13T12:27:35.558Z,97271.19
2023-01-13T12:30:02.476Z,97264.56
2023-01-13T12:32:35.153Z,97265.38
2023-01-13T12:35:16.983Z,97261.69
2023-01-13T12:38:04.035Z,97279.84
2023-01-13T12:40:41.465Z,97291.19
2023-01-13T12:43:16.847Z,97279.84
2023-01-13T12:45:43.510Z,97278.19
2023-01-13T12:48:44.845Z,97281.03
2023-01-13T12:51:24.656Z,97268.19
2023-01-13T12:53:51.432Z,97265.88
2023-01-13T12:56:21.029Z,97264.41
2023-01-13T12:58:47.698Z,97266.03
2023-01-13T13:01:14.603Z,97261.22
2023-01-13T13:03:41.300Z,97269.25
2023-01-13T13:06:12.241Z,97258.75
2023-01-13T13:09:15.410Z,97257.13
2023-01-13T13:11:48.414Z,97252.97
2023-01-13T13:14:15.134Z,97263.56
2023-01-13T13:16:49.050Z,97265.28
2023-01-13T13:19:18.740Z,97268.63
2023-01-13T13:22:13.101Z,97262.09
2023-01-13T13:24:43.887Z,97272.44
2023-01-13T13:27:46.960Z,97273.41
2023-01-13T13:30:36.169Z,97278.91
2023-01-13T13:33:11.951Z,97273.53
2023-01-13T13:35:43.275Z,97274.41
2023-01-13T13:38:25.003Z,97271.53
2023-01-13T13:40:51.612Z,97279.84
2023-01-13T13:43:18.261Z,97271.31
2023-01-13T13:45:51.400Z,97280.16
2023-01-13T13:48:24.616Z,97281.88
2023-01-13T13:50:56.647Z,97290.13
2023-01-13T13:53:28.269Z,97290.16
2023-01-13T13:55:56.318Z,97297.25
2023-01-13T13:58:23.095Z,97288.66
2023-01-13T14:00:49.791Z,97290.03
2023-01-13T14:03:27.312Z,97300.28
2023-01-13T14:05:58.931Z,97299.91
2023-01-13T14:08:25.973Z,97305.44
2023-01-13T14:10:52.810Z,97305.44
2023-01-13T14:13:25.348Z,97308.13
2023-01-13T14:16:02.810Z,97313.47
2023-01-13T14:18:31.172Z,97307.09
2023-01-13T14:21:03.024Z,97306.88
2023-01-13T14:23:31.281Z,97287.88
2023-01-13T14:26:08.529Z,97290.09
2023-01-13T14:28:38.569Z,97293.25
2023-01-13T14:31:08.489Z,97291.00
2023-01-13T14:33:42.032Z,97287.53
2023-01-13T14:36:22.605Z,97288.22
2023-01-13T14:39:05.191Z,97280.19
2023-01-13T14:41:38.729Z,97295.50
2023-01-13T14:44:33.594Z,97312.03
2023-01-13T14:47:04.755Z,97316.13
2023-01-13T14:49:51.854Z,97312.81
2023-01-13T14:52:23.060Z,97319.63
2023-01-13T14:55:08.309Z,97316.72
2023-01-13T14:57:38.748Z,97317.72
2023-01-13T15:00:14.461Z,97329.72
2023-01-13T15:02:49.967Z,97332.25
2023-01-13T15:05:19.358Z,97340.94
2023-01-13T15:08:10.316Z,97339.47
2023-01-13T15:10:54.844Z,97344.25
2023-01-13T15:13:26.315Z,97347.56
2023-01-13T15:15:56.954Z,97350.66
2023-01-13T15:18:23.655Z,97348.59
2023-01-13T15:20:50.264Z,97356.44
2023-01-13T15:23:17.829Z,97359.94
2023-01-13T15:25:46.232Z,97371.94
2023-01-13T15:28:23.724Z,97360.97
2023-01-13T15:30:51.093Z,97378.56
2023-01-13T15:33:17.877Z,97390.94
2023-01-13T15:35:46.089Z,97388.22
2023-01-13T15:38:13.990Z,97389.69
2023-01-13T15:40:41.220Z,97389.28
2023-01-13T15:43:12.423Z,97396.94
2023-01-13T15:45:39.140Z,97413.88
2023-01-13T15:48:07.925Z,97410.34
2023-01-13T15:50:34.533Z,97414.44
2023-01-13T15:53:03.012Z,97408.69
2023-01-13T15:55:30.270Z,97412.16
2023-01-13T15:57:56.971Z,97412.81
2023-01-13T16:00:23.662Z,97418.97
2023-01-13T16:02:50.351Z,97411.97
2023-01-13T16:05:17.106Z,97420.66
2023-01-13T16:07:43.745Z,97422.06
2023-01-13T16:10:20.460Z,97419.22
2023-01-13T16:12:47.181Z,97413.22
2023-01-13T16:15:14.624Z,97422.09
2023-01-13T16:17:41.239Z,97417.97
2023-01-13T16:20:13.846Z,97424.19
2023-01-13T16:22:40.521Z,97420.06
2023-01-13T16:25:10.095Z,97430.59
2023-01-13T16:27:36.695Z,97428.53
2023-01-13T16:30:03.404Z,97438.44
2023-01-13T16:32:30.012Z,97433.47
2023-01-13T16:34:56.979Z,97437.81
2023-01-13T16:37:25.644Z,97436.56
2023-01-13T16:39:53.229Z,97448.38
2023-01-13T16:42:21.024Z,97451.47
2023-01-13T16:44:47.664Z,97459.28
2023-01-13T16:47:15.017Z,97455.59
2023-01-13T16:49:41.680Z,97458.47
2023-01-13T16:52:08.294Z,97472.94
2023-01-13T16:54:34.961Z,97478.91
2023-01-13T16:57:01.698Z,97488.81
2023-01-13T16:59:28.314Z,97498.06
2023-01-13T17:01:55.118Z,97507.75
2023-01-13T17:04:22.520Z,97510.81
2023-01-13T17:07:02.968Z,97518.03
2023-01-13T17:09:29.752Z,97516.59
2023-01-13T17:11:56.524Z,97521.53
2023-01-13T17:14:23.261Z,97525.97
2023-01-13T17:16:51.143Z,97527.22
2023-01-13T17:19:18.455Z,97525.59
2023-01-13T17:21:45.048Z,97525.03
2023-01-13T17:24:11.936Z,97521.75
2023-01-13T17:26:43.218Z,97518.03
2023-01-13T17:29:17.644Z,97531.72
2023-01-13T17:31:44.328Z,97534.59
2023-01-13T17:34:11.662Z,97538.41
2023-01-13T17:36:38.532Z,97534.59
2023-01-13T17:39:05.487Z,97538.25
2023-01-13T17:41:32.148Z,97549.59
2023-01-13T17:43:58.837Z,97547.34
2023-01-13T17:46:25.468Z,97534.78
2023-01-13T17:48:52.347Z,97533.97
2023-01-13T17:51:19.384Z,97541.59
2023-01-13T17:53:46.240Z,97532.31
2023-01-13T17:56:13.810Z,97535.84
2023-01-13T17:58:40.563Z,97550.72
2023-01-13T18:01:09.205Z,97548.63
2023-01-13T18:03:36.135Z,97551.69
2023-01-13T18:06:04.260Z,97548.94
2023-01-13T18:08:31.009Z,97558.44
2023-01-13T18:10:57.765Z,97560.13
2023-01-13T18:13:24.376Z,97560.31
2023-01-13T18:16:02.294Z,97562.94
2023-01-13T18:18:29.207Z,97556.34
2023-01-13T18:20:56.016Z,97571.97
2023-01-13T18:23:22.774Z,97578.97
2023-01-13T18:25:49.377Z,97571.31
2023-01-13T18:28:16.192Z,97582.50
2023-01-13T18:30:42.841Z,97583.44
2023-01-13T18:33:09.538Z,97581.22
2023-01-13T18:35:38.530Z,97596.75
2023-01-13T18:38:05.301Z,97592.84
2023-01-13T18:40:32.052Z,97592.47
2023-01-13T18:42:58.678Z,97586.81
2023-01-13T18:45:30.153Z,97600.31
2023-01-13T18:47:58.274Z,97599.56
2023-01-13T18:50:24.899Z,97598.59
2023-01-13T18:52:52.164Z,97602.38
2023-01-13T18:55:18.848Z,97603.88
2023-01-13T18:57:45.803Z,97609.28
2023-01-13T19:00:14.434Z,97617.16
2023-01-13T19:02:41.183Z,97618.81
2023-01-13T19:05:08.249Z,97630.81
2023-01-13T19:07:35.015Z,97638.41
2023-01-13T19:10:02.214Z,97638.19
2023-01-13T19:12:29.010Z,97639.03
2023-01-13T19:14:56.037Z,97655.59
2023-01-13T19:17:23.440Z,97647.34
2023-01-13T19:19:51.676Z,97650.69
2023-01-13T19:22:20.188Z,97653.44
2023-01-13T19:24:46.916Z,97653.44
2023-01-13T19:27:14.086Z,97650.28
2023-01-13T19:29:50.937Z,97650.38
2023-01-13T19:32:20.245Z,97647.44
2023-01-13T19:34:47.016Z,97649.72
2023-01-13T19:37:13.648Z,97664.66
2023-01-13T19:39:40.430Z,97669.16
2023-01-13T19:42:07.160Z,97669.38
2023-01-13T19:44:33.776Z,97698.31
2023-01-13T19:47:00.423Z,97702.88
2023-01-13T19:49:27.155Z,97697.63
2023-01-13T19:51:53.899Z,97695.66
2023-01-13T19:54:20.707Z,97695.31
2023-01-13T19:56:47.510Z,97692.13
2023-01-13T19:59:14.178Z,97686.47
2023-01-13T20:01:40.939Z,97682.78
2023-01-13T20:04:07.616Z,97694.84
2023-01-13T20:06:34.489Z,97696.69
2023-01-13T20:09:01.280Z,97698.81
2023-01-13T20:11:27.982Z,97691.50
2023-01-13T20:13:54.610Z,97698.03
2023-01-13T20:16:21.295Z,97689.25
2023-01-13T20:18:51.124Z,97681.03
2023-01-13T20:21:17.862Z,97674.44
2023-01-13T20:23:44.493Z,97683.69
2023-01-13T20:26:11.185Z,97677.16
2023-01-13T20:28:37.924Z,97672.69
2023-01-13T20:31:08.357Z,97675.66
2023-01-13T20:33:35.436Z,97684.63
2023-01-13T20:36:02.161Z,97685.47
2023-01-13T20:38:28.753Z,97690.44
2023-01-13T20:41:01.497Z,97701.09
2023-01-13T20:43:28.200Z,97702.94
2023-01-13T20:45:54.864Z,97712.59
2023-01-13T20:48:21.516Z,97703.75
2023-01-13T20:50:52.851Z,97704.88
2023-01-13T20:53:19.507Z,97700.84
2023-01-13T20:55:49.050Z,97704.81
2023-01-13T20:58:15.701Z,97702.91
2023-01-13T21:00:42.392Z,97707.06
2023-01-13T21:03:08.983Z,97708.47
2023-01-13T21:05:36.188Z,97710.59
2023-01-13T21:08:02.865Z,97709.34
2023-01-13T21:10:29.513Z,97711.66
2023-01-13T21:12:56.174Z,97716.28
2023-01-13T21:15:22.841Z,97719.75
2023-01-13T21:17:50.781Z,97717.44
2023-01-13T21:20:17.488Z,97719.81
2023-01-13T21:22:47.940Z,97710.34
2023-01-13T21:25:15.273Z,97705.59
2023-01-13T21:27:41.880Z,97707.25
2023-01-13T21:30:08.956Z,97711.88
2023-01-13T21:32:35.567Z,97701.59
2023-01-13T21:35:02.176Z,97704.00
2023-01-13T21:37:28.797Z,97701.97
2023-01-13T21:39:55.408Z,97701.44
2023-01-13T21:42:22.083Z,97697.75
2023-01-13T21:44:48.780Z,97706.84
2023-01-13T21:47:16.143Z,97703.22
2023-01-13T21:49:42.870Z,97693.34
2023-01-13T21:52:10.204Z,97691.09
2023-01-13T21:54:36.834Z,97696.69
2023-01-13T21:57:03.505Z,97699.97
2023-01-13T21:59:30.141Z,97700.94
2023-01-13T22:02:13.225Z,97702.72
2023-01-13T22:04:43.428Z,97713.44
2023-01-13T22:07:10.339Z,97710.78
2023-01-13T22:09:36.977Z,97713.81
2023-01-13T22:12:03.876Z,97721.81
2023-01-13T22:14:30.711Z,97723.69
2023-01-13T22:16:57.382Z,97723.13
2023-01-13T22:19:24.067Z,97727.97
2023-01-13T22:21:50.902Z,97730.84
2023-01-13T22:24:17.566Z,97735.31
2023-01-13T22:26:44.217Z,97732.06
2023-01-13T22:29:11.000Z,97730.94
2023-01-13T22:31:38.017Z,97730.41
2023-01-13T22:34:04.719Z,97722.91
2023-01-13T22:36:31.397Z,97724.09
2023-01-13T22:38:58.053Z,97720.28
2023-01-13T22:41:24.652Z,97722.63
2023-01-13T22:43:51.441Z,97723.47
2023-01-13T22:46:18.245Z,97722.16
2023-01-13T22:48:45.095Z,97717.41
2023-01-13T22:51:13.215Z,97720.47
2023-01-13T22:53:39.996Z,97725.59
2023-01-13T22:56:06.954Z,97721.91
2023-01-13T22:58:33.594Z,97725.50
2023-01-13T23:01:11.199Z,97728.09
2023-01-13T23:03:37.887Z,97720.00
2023-01-13T23:06:04.770Z,97721.38
2023-01-13T23:08:32.487Z,97729.31
2023-01-13T23:11:07.155Z,97720.91
2023-01-13T23:13:34.221Z,97720.66
2023-01-13T23:16:04.429Z,97714.16
2023-01-13T23:18:31.589Z,97720.19
2023-01-13T23:21:10.627Z,97705.69
2023-01-13T23:23:37.358Z,97707.72
2023-01-13T23:26:04.313Z,97704.09
2023-01-13T23:28:30.951Z,97697.72
2023-01-13T23:30:57.692Z,97689.16
2023-01-13T23:33:24.356Z,97687.69
2023-01-13T23:36:01.876Z,97690.72
2023-01-13T23:38:29.043Z,97692.44
2023-01-13T23:40:55.895Z,97687.19
2023-01-13T23:43:22.736Z,97697.50
2023-01-13T23:45:49.604Z,97694.63
2023-01-13T23:48:16.269Z,97694.06
2023-01-13T23:50:42.951Z,97683.47
2023-01-13T23:53:09.625Z,97682.19
2023-01-13T23:55:36.358Z,97689.28
2023-01-13T23:58:03.027Z,97680.91
